createdAt,value
2023-03-16T00:03:53.458Z,97600.78
2023-03-16T00:08:59.014Z,97600.78
2023-03-16T00:14:04.115Z,97609.25
2023-03-16T00:19:06.338Z,97607.63
2023-03-16T00:24:08.350Z,97610.28
2023-03-16T00:29:10.040Z,97603.63
2023-03-16T00:34:12.321Z,97611.06
2023-03-16T00:39:14.822Z,97610.25
2023-03-16T00:44:16.606Z,97613.16
2023-03-16T00:49:18.496Z,97613.16
2023-03-16T00:54:22.128Z,97615.22
2023-03-16T00:59:26.140Z,97614.16
2023-03-16T01:04:29.183Z,97614.34
2023-03-16T01:09:36.668Z,97618.03
2023-03-16T01:14:39.145Z,97621.78
2023-03-16T01:19:41.669Z,97611.41
2023-03-16T01:24:47.643Z,97613.84
2023-03-16T01:29:49.786Z,97599.72
2023-03-16T01:34:51.656Z,97602.59
2023-03-16T01:39:54.409Z,97599.25
2023-03-16T01:45:01.601Z,97602.34
2023-03-16T01:50:08.330Z,97593.88
2023-03-16T01:55:14.901Z,97592.59
2023-03-16T02:00:19.972Z,97602.13
2023-03-16T02:05:54.928Z,97598.34
2023-03-16T02:10:59.823Z,97599.56
2023-03-16T02:16:19.340Z,97605.75
2023-03-16T02:21:35.328Z,97595.81
2023-03-16T02:26:59.100Z,97592.88
2023-03-16T02:32:06.347Z,97595.38
2023-03-16T02:37:08.958Z,97590.38
2023-03-16T02:42:16.607Z,97588.31
2023-03-16T02:47:36.141Z,97584.72
2023-03-16T02:52:38.659Z,97588.97
2023-03-16T02:57:40.942Z,97585.81
2023-03-16T03:02:47.627Z,97584.75
2023-03-16T03:07:49.460Z,97590.94
2023-03-16T03:12:52.009Z,97588.09
2023-03-16T03:17:53.832Z,97582.06
2023-03-16T03:22:56.217Z,97593.22
2023-03-16T03:27:58.570Z,97585.16
2023-03-16T03:33:01.546Z,97584.38
2023-03-16T03:38:04.559Z,97572.72
2023-03-16T03:43:06.451Z,97587.63
2023-03-16T03:48:12.872Z,97579.28
2023-03-16T03:53:14.934Z,97588.38
2023-03-16T03:58:36.832Z,97581.91
2023-03-16T04:03:38.680Z,97574.88
2023-03-16T04:08:42.021Z,97578.97
2023-03-16T04:13:46.892Z,97585.06
2023-03-16T04:18:48.695Z,97600.44
2023-03-16T04:23:54.427Z,97600.16
2023-03-16T04:29:00.369Z,97602.09
2023-03-16T04:34:02.401Z,97593.50
2023-03-16T04:39:05.532Z,97584.44
2023-03-16T04:44:07.724Z,97569.94
2023-03-16T04:49:10.432Z,97568.69
2023-03-16T04:54:13.590Z,97567.00
2023-03-16T04:59:18.032Z,97561.22
2023-03-16T05:04:25.494Z,97555.81
2023-03-16T05:09:27.315Z,97549.59
2023-03-16T05:14:29.112Z,97550.63
2023-03-16T05:19:49.216Z,97546.91
2023-03-16T05:24:52.538Z,97547.66
2023-03-16T05:29:54.883Z,97543.31
2023-03-16T05:34:58.538Z,97542.09
2023-03-16T05:40:00.355Z,97547.28
2023-03-16T05:45:01.965Z,97539.59
2023-03-16T05:50:12.455Z,97540.34
2023-03-16T05:55:18.283Z,97552.00
2023-03-16T06:00:26.116Z,97550.63
2023-03-16T06:05:41.624Z,97542.84
2023-03-16T06:10:43.444Z,97548.25
2023-03-16T06:15:45.219Z,97555.34
2023-03-16T06:20:48.643Z,97554.56
2023-03-16T06:25:51.013Z,97565.06
2023-03-16T06:30:57.726Z,97560.94
2023-03-16T06:36:04.599Z,97559.09
2023-03-16T06:41:14.657Z,97556.81
2023-03-16T06:46:16.900Z,97559.88
2023-03-16T06:51:18.977Z,97553.66
2023-03-16T06:56:27.850Z,97562.31
2023-03-16T07:01:31.799Z,97553.91
2023-03-16T07:06:34.351Z,97562.66
2023-03-16T07:11:36.435Z,97560.31
2023-03-16T07:16:38.271Z,97545.28
2023-03-16T07:21:41.930Z,97554.38
2023-03-16T07:26:48.425Z,97567.50
2023-03-16T07:32:00.129Z,97571.47
2023-03-16T07:37:09.468Z,97566.28
2023-03-16T07:42:12.033Z,97578.88
2023-03-16T07:47:26.625Z,97580.97
2023-03-16T07:52:32.271Z,97587.66
2023-03-16T07:57:34.500Z,97585.56
2023-03-16T08:02:36.567Z,97585.56
2023-03-16T08:07:38.430Z,97582.66
2023-03-16T08:12:49.148Z,97579.31
2023-03-16T08:17:52.380Z,97584.50
2023-03-16T08:22:59.131Z,97587.16
2023-03-16T08:28:05.971Z,97584.59
2023-03-16T08:33:08.145Z,97595.81
2023-03-16T08:38:12.744Z,97600.09
2023-03-16T08:43:19.164Z,97577.50
2023-03-16T08:48:22.149Z,97578.47
2023-03-16T08:53:25.788Z,97572.34
2023-03-16T08:58:27.644Z,97564.91
2023-03-16T09:03:30.851Z,97564.34
2023-03-16T09:08:33.116Z,97557.13
2023-03-16T09:13:36.085Z,97557.63
2023-03-16T09:18:37.915Z,97569.78
2023-03-16T09:23:42.636Z,97562.09
2023-03-16T09:28:44.412Z,97546.50
2023-03-16T09:33:47.001Z,97563.00
2023-03-16T09:38:48.813Z,97554.22
2023-03-16T09:43:53.253Z,97555.66
2023-03-16T09:48:57.897Z,97554.88
2023-03-16T09:54:03.138Z,97555.91
2023-03-16T09:59:13.573Z,97549.47
2023-03-16T10:04:34.504Z,97549.38
2023-03-16T10:09:42.954Z,97542.53
2023-03-16T10:14:57.755Z,97539.69
2023-03-16T10:20:04.349Z,97539.22
2023-03-16T10:25:19.918Z,97531.06
2023-03-16T10:30:28.712Z,97530.81
2023-03-16T10:35:45.073Z,97519.31
2023-03-16T10:40:46.849Z,97520.59
2023-03-16T10:45:48.653Z,97506.03
2023-03-16T10:50:57.488Z,97508.22
2023-03-16T10:56:11.874Z,97507.13
2023-03-16T11:01:26.811Z,97503.69
2023-03-16T11:06:30.841Z,97495.47
2023-03-16T11:11:33.991Z,97495.06
2023-03-16T11:17:02.257Z,97494.66
2023-03-16T11:22:13.161Z,97474.22
2023-03-16T11:27:36.604Z,97469.16
2023-03-16T11:32:41.477Z,97460.72
2023-03-16T11:38:20.699Z,97462.88
2023-03-16T11:43:43.990Z,97448.97
2023-03-16T11:48:46.271Z,97453.91
2023-03-16T11:54:04.896Z,97447.41
2023-03-16T11:59:27.070Z,97454.00
2023-03-16T12:04:38.343Z,97444.38
2023-03-16T12:10:13.897Z,97441.69
2023-03-16T12:15:41.862Z,97421.53
2023-03-16T12:20:50.266Z,97423.91
2023-03-16T12:25:53.397Z,97417.38
2023-03-16T12:31:09.353Z,97412.69
2023-03-16T12:36:46.465Z,97409.63
2023-03-16T12:42:13.574Z,97389.69
2023-03-16T12:47:28.284Z,97383.06
2023-03-16T12:52:39.764Z,97371.78
2023-03-16T12:57:43.397Z,97379.31
2023-03-16T13:02:59.899Z,97367.56
2023-03-16T13:08:06.780Z,97353.94
2023-03-16T13:13:18.380Z,97353.41
2023-03-16T13:18:23.334Z,97343.63
2023-03-16T13:23:57.923Z,97349.19
2023-03-16T13:28:59.663Z,97357.50
2023-03-16T13:34:02.728Z,97348.19
2023-03-16T13:39:22.303Z,97349.06
2023-03-16T13:44:25.182Z,97340.59
2023-03-16T13:49:27.530Z,97328.00
2023-03-16T13:54:30.828Z,97321.41
2023-03-16T13:59:33.364Z,97319.78
2023-03-16T14:04:35.309Z,97319.22
2023-03-16T14:09:38.093Z,97314.56
2023-03-16T14:14:41.649Z,97319.78
2023-03-16T14:19:58.651Z,97320.03
2023-03-16T14:25:01.362Z,97310.44
2023-03-16T14:30:24.257Z,97312.38
2023-03-16T14:35:41.285Z,97310.72
2023-03-16T14:40:53.541Z,97305.47
2023-03-16T14:45:55.769Z,97293.13
2023-03-16T14:51:01.575Z,97280.81
2023-03-16T14:56:03.770Z,97292.88
2023-03-16T15:01:06.367Z,97292.56
2023-03-16T15:06:08.196Z,97280.50
2023-03-16T15:11:10.625Z,97287.94
2023-03-16T15:16:14.040Z,97279.72
2023-03-16T15:21:20.740Z,97279.72
2023-03-16T15:26:27.949Z,97272.03
2023-03-16T15:31:29.680Z,97258.56
2023-03-16T15:36:31.996Z,97253.34
2023-03-16T15:41:46.700Z,97242.69
2023-03-16T15:46:49.608Z,97231.97
2023-03-16T15:51:51.388Z,97218.81
2023-03-16T15:56:55.894Z,97208.63
2023-03-16T16:01:58.266Z,97216.00
2023-03-16T16:07:02.759Z,97216.00
2023-03-16T16:12:04.679Z,97219.78
2023-03-16T16:17:19.935Z,97231.25
2023-03-16T16:22:23.414Z,97232.81
2023-03-16T16:27:25.166Z,97248.66
2023-03-16T16:32:27.213Z,97259.81
2023-03-16T16:37:29.042Z,97265.44
2023-03-16T16:42:30.841Z,97270.28
2023-03-16T16:47:32.518Z,97261.16
2023-03-16T16:52:34.271Z,97255.31
2023-03-16T16:57:37.108Z,97257.41
2023-03-16T17:02:47.846Z,97266.53
2023-03-16T17:07:50.960Z,97264.13
2023-03-16T17:12:54.890Z,97272.19
2023-03-16T17:18:05.047Z,97281.22
2023-03-16T17:23:25.511Z,97277.75
2023-03-16T17:28:31.332Z,97271.91
2023-03-16T17:33:33.907Z,97268.63
2023-03-16T17:38:35.806Z,97263.19
2023-03-16T17:43:37.525Z,97261.72
2023-03-16T17:48:39.348Z,97252.88
2023-03-16T17:53:41.388Z,97257.47
2023-03-16T17:58:45.156Z,97249.53
2023-03-16T18:03:48.391Z,97261.91
2023-03-16T18:08:50.437Z,97258.28
2023-03-16T18:13:52.770Z,97255.94
2023-03-16T18:18:59.836Z,97261.50
2023-03-16T18:24:02.727Z,97244.03
2023-03-16T18:29:05.598Z,97245.13
2023-03-16T18:34:09.122Z,97235.22
2023-03-16T18:39:18.872Z,97235.03
2023-03-16T18:44:23.247Z,97251.50
2023-03-16T18:49:36.670Z,97248.03
2023-03-16T18:54:39.024Z,97245.44
2023-03-16T18:59:40.776Z,97264.16
2023-03-16T19:04:42.739Z,97259.00
2023-03-16T19:09:44.869Z,97253.34
2023-03-16T19:14:47.615Z,97257.88
2023-03-16T19:19:49.397Z,97240.38
2023-03-16T19:24:54.109Z,97232.63
2023-03-16T19:29:55.938Z,97222.69
2023-03-16T19:34:57.914Z,97239.81
2023-03-16T19:40:00.403Z,97239.09
2023-03-16T19:45:03.309Z,97246.78
2023-03-16T19:50:13.430Z,97235.38
2023-03-16T19:55:24.880Z,97235.75
2023-03-16T20:00:27.017Z,97221.13
2023-03-16T20:05:30.950Z,97214.59
2023-03-16T20:10:33.101Z,97212.13
2023-03-16T20:15:35.461Z,97209.16
2023-03-16T20:20:37.563Z,97226.41
2023-03-16T20:25:39.209Z,97218.00
2023-03-16T20:30:41.390Z,97215.28
2023-03-16T20:35:43.420Z,97211.53
2023-03-16T20:40:47.746Z,97215.28
2023-03-16T20:45:51.247Z,97216.47
2023-03-16T20:50:54.988Z,97209.72
2023-03-16T20:55:56.705Z,97214.00
2023-03-16T21:00:58.727Z,97216.25
2023-03-16T21:06:00.484Z,97209.16
2023-03-16T21:11:02.197Z,97208.72
2023-03-16T21:16:04.309Z,97204.38
2023-03-16T21:21:06.506Z,97201.66
2023-03-16T21:26:15.981Z,97209.94
2023-03-16T21:31:19.692Z,97203.66
2023-03-16T21:36:24.462Z,97208.28
2023-03-16T21:41:26.171Z,97195.78
2023-03-16T21:46:28.058Z,97192.94
2023-03-16T21:51:31.788Z,97187.00
2023-03-16T21:56:33.429Z,97195.16
2023-03-16T22:01:44.914Z,97188.88
2023-03-16T22:06:52.508Z,97180.66
2023-03-16T22:11:54.119Z,97176.72
2023-03-16T22:16:56.551Z,97172.03
2023-03-16T22:21:58.668Z,97163.44
2023-03-16T22:27:00.313Z,97170.03
2023-03-16T22:32:07.273Z,97176.63
2023-03-16T22:37:12.388Z,97175.53
2023-03-16T22:42:37.104Z,97177.97
2023-03-16T22:47:39.166Z,97195.91
2023-03-16T22:52:41.045Z,97186.31
2023-03-16T22:57:43.085Z,97191.25
2023-03-16T23:02:44.872Z,97180.22
2023-03-16T23:07:46.677Z,97183.69
2023-03-16T23:12:50.014Z,97167.91
2023-03-16T23:17:52.240Z,97174.41
2023-03-16T23:22:55.140Z,97163.94
2023-03-16T23:28:02.680Z,97152.00
2023-03-16T23:33:04.729Z,97151.69
2023-03-16T23:38:07.221Z,97149.28
2023-03-16T23:43:09.146Z,97156.22
2023-03-16T23:48:15.269Z,97145.81
2023-03-16T23:53:18.947Z,97138.78
2023-03-16T23:58:20.885Z,97144.31
